createdAt,value
2023-03-05T00:01:20.629Z,17.15
2023-03-05T00:03:47.897Z,10.80
2023-03-05T00:06:17.686Z,10.57
2023-03-05T00:08:45.141Z,9.05
2023-03-05T00:11:13.201Z,9.85
2023-03-05T00:13:41.816Z,10.45
2023-03-05T00:16:12.035Z,16.90
2023-03-05T00:18:40.058Z,13.10
2023-03-05T00:21:19.608Z,11.63
2023-03-05T00:23:46.785Z,14.85
2023-03-05T00:26:14.118Z,9.13
2023-03-05T00:28:41.382Z,11.40
2023-03-05T00:31:08.787Z,8.23
2023-03-05T00:33:36.137Z,11.10
2023-03-05T00:36:06.699Z,11.40
2023-03-05T00:38:33.986Z,5.88
2023-03-05T00:41:01.194Z,9.40
2023-03-05T00:43:29.091Z,6.97
2023-03-05T00:45:56.841Z,8.05
2023-03-05T00:48:24.168Z,6.47
2023-03-05T00:50:51.669Z,5.60
2023-03-05T00:53:19.319Z,11.57
2023-03-05T00:55:46.601Z,8.75
2023-03-05T00:58:13.923Z,7.85
2023-03-05T01:00:41.543Z,3.55
2023-03-05T01:03:09.662Z,7.50
2023-03-05T01:05:37.063Z,8.57
2023-03-05T01:08:04.510Z,7.80
2023-03-05T01:10:31.686Z,6.50
2023-03-05T01:12:58.947Z,8.60
2023-03-05T01:15:26.263Z,14.20
2023-03-05T01:17:53.863Z,10.60
2023-03-05T01:20:22.697Z,19.05
2023-03-05T01:22:50.015Z,9.35
2023-03-05T01:25:18.019Z,18.20
2023-03-05T01:27:45.239Z,16.00
2023-03-05T01:30:14.515Z,12.50
2023-03-05T01:32:42.977Z,13.90
2023-03-05T01:35:16.810Z,15.82
2023-03-05T01:37:43.988Z,13.82
2023-03-05T01:40:13.917Z,9.05
2023-03-05T01:42:50.101Z,11.32
2023-03-05T01:45:18.827Z,14.00
2023-03-05T01:47:46.154Z,14.63
2023-03-05T01:50:22.938Z,12.85
2023-03-05T01:53:01.849Z,12.77
2023-03-05T01:55:31.115Z,12.27
2023-03-05T01:58:05.183Z,14.32
2023-03-05T02:00:37.993Z,9.05
2023-03-05T02:03:10.822Z,12.30
2023-03-05T02:05:41.340Z,10.18
2023-03-05T02:08:15.029Z,11.77
2023-03-05T02:10:51.928Z,12.60
2023-03-05T02:13:28.207Z,13.88
2023-03-05T02:15:58.284Z,8.48
2023-03-05T02:18:25.613Z,10.23
2023-03-05T02:21:13.082Z,11.55
2023-03-05T02:23:41.309Z,14.55
2023-03-05T02:26:11.656Z,13.50
2023-03-05T02:28:47.675Z,16.33
2023-03-05T02:31:21.605Z,8.20
2023-03-05T02:33:49.132Z,11.63
2023-03-05T02:36:17.109Z,10.27
2023-03-05T02:38:44.696Z,10.45
2023-03-05T02:41:12.492Z,9.63
2023-03-05T02:43:39.512Z,12.55
2023-03-05T02:46:07.589Z,8.20
2023-03-05T02:48:34.757Z,9.63
2023-03-05T02:51:04.531Z,8.45
2023-03-05T02:53:31.622Z,14.20
2023-03-05T02:55:58.874Z,11.32
2023-03-05T02:58:25.984Z,8.57
2023-03-05T03:00:53.175Z,12.98
2023-03-05T03:03:20.424Z,10.10
2023-03-05T03:05:47.507Z,17.02
2023-03-05T03:08:15.350Z,14.65
2023-03-05T03:10:42.403Z,16.20
2023-03-05T03:13:09.452Z,16.73
2023-03-05T03:15:38.059Z,17.23
2023-03-05T03:18:05.482Z,13.88
2023-03-05T03:20:35.045Z,16.10
2023-03-05T03:23:02.347Z,16.08
2023-03-05T03:25:30.152Z,14.63
2023-03-05T03:27:57.263Z,19.30
2023-03-05T03:30:24.372Z,19.70
2023-03-05T03:32:52.546Z,13.18
2023-03-05T03:35:19.650Z,16.08
2023-03-05T03:37:47.982Z,15.52
2023-03-05T03:40:15.087Z,16.13
2023-03-05T03:42:42.149Z,17.05
2023-03-05T03:45:09.802Z,10.88
2023-03-05T03:47:36.899Z,16.95
2023-03-05T03:50:04.696Z,17.77
2023-03-05T03:52:31.724Z,14.05
2023-03-05T03:55:01.803Z,17.17
2023-03-05T03:57:30.460Z,19.45
2023-03-05T03:59:57.542Z,14.52
2023-03-05T04:02:24.694Z,10.77
2023-03-05T04:04:51.994Z,13.00
2023-03-05T04:07:19.303Z,8.80
2023-03-05T04:09:46.361Z,8.57
2023-03-05T04:12:18.080Z,13.75
2023-03-05T04:14:46.577Z,12.93
2023-03-05T04:17:13.988Z,7.05
2023-03-05T04:19:41.529Z,10.70
2023-03-05T04:22:12.963Z,7.47
2023-03-05T04:24:40.047Z,6.65
2023-03-05T04:27:07.398Z,10.35
2023-03-05T04:29:35.071Z,11.60
2023-03-05T04:32:02.396Z,10.27
2023-03-05T04:34:29.488Z,6.03
2023-03-05T04:36:56.581Z,8.45
2023-03-05T04:39:23.704Z,12.77
2023-03-05T04:41:50.883Z,8.55
2023-03-05T04:44:18.217Z,14.35
2023-03-05T04:46:45.577Z,7.47
2023-03-05T04:49:12.780Z,4.60
2023-03-05T04:51:39.895Z,9.00
2023-03-05T04:54:06.885Z,10.13
2023-03-05T04:56:34.348Z,9.70
2023-03-05T04:59:01.370Z,6.72
2023-03-05T05:01:28.535Z,7.28
2023-03-05T05:03:55.608Z,6.28
2023-03-05T05:06:22.643Z,6.90
2023-03-05T05:08:49.755Z,3.88
2023-03-05T05:11:16.804Z,5.25
2023-03-05T05:13:43.939Z,8.38
2023-03-05T05:16:11.055Z,11.85
2023-03-05T05:18:38.521Z,6.75
2023-03-05T05:21:13.681Z,6.55
2023-03-05T05:23:41.000Z,7.97
2023-03-05T05:26:09.552Z,8.98
2023-03-05T05:28:38.531Z,5.07
2023-03-05T05:31:09.541Z,10.82
2023-03-05T05:33:39.521Z,9.75
2023-03-05T05:36:08.968Z,7.30
2023-03-05T05:38:36.401Z,7.30
2023-03-05T05:41:09.196Z,11.60
2023-03-05T05:43:36.720Z,7.72
2023-03-05T05:46:07.121Z,7.30
2023-03-05T05:48:35.986Z,12.52
2023-03-05T05:51:10.981Z,10.60
2023-03-05T05:53:38.967Z,7.50
2023-03-05T05:56:07.978Z,7.00
2023-03-05T05:58:36.009Z,7.43
2023-03-05T06:01:03.148Z,8.15
2023-03-05T06:03:30.461Z,6.85
2023-03-05T06:05:58.582Z,15.90
2023-03-05T06:08:25.598Z,10.13
2023-03-05T06:10:56.410Z,8.98
2023-03-05T06:13:23.494Z,8.30
2023-03-05T06:15:58.355Z,13.07
2023-03-05T06:18:25.465Z,5.13
2023-03-05T06:20:56.662Z,7.97
2023-03-05T06:23:24.528Z,7.43
2023-03-05T06:25:51.997Z,12.07
2023-03-05T06:28:19.429Z,7.20
2023-03-05T06:30:46.619Z,6.70
2023-03-05T06:33:13.786Z,7.43
2023-03-05T06:35:41.340Z,7.57
2023-03-05T06:38:09.445Z,9.48
2023-03-05T06:40:39.348Z,7.53
2023-03-05T06:43:06.562Z,11.65
2023-03-05T06:45:33.648Z,10.63
2023-03-05T06:48:00.778Z,6.95
2023-03-05T06:50:28.300Z,9.75
2023-03-05T06:52:55.453Z,10.85
2023-03-05T06:55:22.617Z,8.38
2023-03-05T06:57:50.876Z,10.75
2023-03-05T07:00:18.189Z,9.23
2023-03-05T07:02:45.375Z,7.97
2023-03-05T07:05:12.568Z,10.60
2023-03-05T07:07:39.716Z,12.10
2023-03-05T07:10:08.190Z,10.43
2023-03-05T07:12:35.978Z,13.55
2023-03-05T07:15:03.155Z,8.85
2023-03-05T07:17:30.348Z,9.45
2023-03-05T07:19:57.348Z,13.45
2023-03-05T07:22:26.293Z,9.90
2023-03-05T07:24:53.305Z,10.68
2023-03-05T07:27:20.352Z,8.15
2023-03-05T07:29:47.462Z,5.35
2023-03-05T07:32:14.572Z,7.43
2023-03-05T07:34:41.634Z,6.65
2023-03-05T07:37:08.763Z,6.30
2023-03-05T07:39:35.836Z,6.10
2023-03-05T07:42:05.127Z,8.25
2023-03-05T07:44:32.448Z,9.45
2023-03-05T07:46:59.809Z,9.57
2023-03-05T07:49:27.227Z,13.20
2023-03-05T07:51:55.687Z,8.18
2023-03-05T07:54:23.126Z,7.03
2023-03-05T07:56:50.585Z,7.50
2023-03-05T07:59:17.832Z,6.50
2023-03-05T08:01:46.488Z,7.95
2023-03-05T08:04:13.864Z,6.85
2023-03-05T08:06:42.478Z,5.25
2023-03-05T08:09:09.638Z,5.53
2023-03-05T08:11:36.918Z,6.85
2023-03-05T08:14:04.772Z,11.98
2023-03-05T08:16:32.973Z,6.78
2023-03-05T08:19:01.577Z,7.13
2023-03-05T08:21:34.394Z,8.10
2023-03-05T08:24:08.024Z,9.73
2023-03-05T08:26:38.652Z,10.95
2023-03-05T08:29:10.615Z,5.60
2023-03-05T08:31:39.545Z,8.68
2023-03-05T08:34:07.460Z,9.25
2023-03-05T08:36:35.045Z,7.82
2023-03-05T08:39:05.983Z,10.52
2023-03-05T08:41:33.338Z,7.07
2023-03-05T08:44:01.204Z,9.00
2023-03-05T08:46:28.633Z,10.52
2023-03-05T08:48:55.988Z,7.18
2023-03-05T08:51:26.091Z,8.38
2023-03-05T08:53:55.568Z,7.43
2023-03-05T08:56:22.841Z,13.05
2023-03-05T08:58:52.755Z,8.95
2023-03-05T09:01:20.059Z,11.40
2023-03-05T09:03:47.435Z,10.48
2023-03-05T09:06:14.709Z,9.63
2023-03-05T09:08:42.307Z,8.80
2023-03-05T09:11:12.009Z,10.48
2023-03-05T09:13:39.372Z,9.77
2023-03-05T09:16:09.259Z,8.98
2023-03-05T09:18:37.043Z,8.98
2023-03-05T09:21:10.245Z,9.88
2023-03-05T09:23:38.179Z,6.70
2023-03-05T09:26:07.034Z,7.15
2023-03-05T09:28:34.262Z,9.55
2023-03-05T09:31:05.994Z,13.50
2023-03-05T09:33:34.779Z,13.50
2023-03-05T09:36:02.858Z,10.80
2023-03-05T09:38:30.173Z,9.63
2023-03-05T09:41:26.947Z,9.00
2023-03-05T09:44:27.667Z,7.38
2023-03-05T09:47:00.330Z,9.32
2023-03-05T09:49:57.076Z,11.52
2023-03-05T09:52:41.939Z,12.18
2023-03-05T09:55:34.833Z,10.38
2023-03-05T09:58:14.384Z,7.72
2023-03-05T10:00:48.413Z,9.20
2023-03-05T10:03:18.419Z,9.18
2023-03-05T10:06:22.471Z,10.95
2023-03-05T10:08:56.646Z,10.38
2023-03-05T10:13:52.445Z,15.38
2023-03-05T10:16:49.680Z,11.35
2023-03-05T10:19:51.709Z,12.30
2023-03-05T10:22:21.213Z,11.90
2023-03-05T10:25:00.898Z,12.10
2023-03-05T10:27:43.213Z,9.32
2023-03-05T10:30:24.313Z,9.88
2023-03-05T10:32:51.858Z,13.90
2023-03-05T10:35:47.122Z,9.45
2023-03-05T10:38:22.976Z,14.93
2023-03-05T10:40:55.409Z,9.68
2023-03-05T10:43:39.668Z,8.20
2023-03-05T10:46:13.220Z,13.95
2023-03-05T10:48:47.398Z,10.13
2023-03-05T10:51:44.557Z,10.25
2023-03-05T10:54:20.596Z,15.90
2023-03-05T10:56:48.167Z,18.40
2023-03-05T10:59:15.524Z,12.68
2023-03-05T11:01:42.882Z,12.27
2023-03-05T11:04:40.710Z,17.25
2023-03-05T11:07:17.211Z,17.55
2023-03-05T11:10:02.296Z,15.77
2023-03-05T11:12:39.707Z,18.70
2023-03-05T11:15:09.867Z,18.83
2023-03-05T11:17:48.066Z,15.38
2023-03-05T11:20:36.505Z,15.77
2023-03-05T11:23:09.214Z,14.75
2023-03-05T11:25:49.398Z,14.30
2023-03-05T11:28:32.187Z,15.65
2023-03-05T11:31:07.631Z,17.38
2023-03-05T11:33:37.315Z,17.58
2023-03-05T11:36:23.890Z,15.30
2023-03-05T11:39:12.448Z,15.13
2023-03-05T11:41:42.402Z,20.20
2023-03-05T11:44:16.763Z,18.00
2023-03-05T11:46:48.356Z,17.65
2023-03-05T11:49:22.909Z,20.30
2023-03-05T11:52:21.557Z,15.70
2023-03-05T11:55:14.897Z,15.40
2023-03-05T11:58:05.188Z,23.98
2023-03-05T12:00:35.711Z,22.30
2023-03-05T12:03:12.871Z,20.25
2023-03-05T12:05:44.788Z,20.27
2023-03-05T12:08:35.081Z,18.17
2023-03-05T12:11:09.717Z,17.02
2023-03-05T12:13:43.221Z,19.92
2023-03-05T12:16:20.430Z,21.52
2023-03-05T12:19:18.546Z,22.15
2023-03-05T12:21:51.125Z,21.60
2023-03-05T12:24:26.687Z,19.77
2023-03-05T12:27:04.161Z,24.65
2023-03-05T12:29:40.081Z,24.20
2023-03-05T12:32:35.466Z,25.75
2023-03-05T12:35:22.608Z,25.17
2023-03-05T12:37:53.782Z,23.95
2023-03-05T12:40:29.882Z,30.60
2023-03-05T12:43:01.221Z,26.35
2023-03-05T12:45:39.895Z,28.52
2023-03-05T12:48:12.383Z,26.05
2023-03-05T12:50:39.518Z,26.98
2023-03-05T12:53:16.356Z,27.73
2023-03-05T12:56:01.220Z,27.00
2023-03-05T12:58:44.667Z,23.20
2023-03-05T13:01:11.813Z,30.30
2023-03-05T13:03:47.137Z,23.95
2023-03-05T13:06:35.047Z,18.55
2023-03-05T13:09:18.566Z,21.50
2023-03-05T13:11:52.006Z,21.83
2023-03-05T13:14:45.317Z,19.75
2023-03-05T13:17:27.196Z,22.35
2023-03-05T13:19:54.250Z,21.35
2023-03-05T13:22:21.606Z,18.48
2023-03-05T13:24:48.669Z,21.17
2023-03-05T13:27:42.505Z,18.40
2023-03-05T13:30:28.374Z,18.38
2023-03-05T13:33:03.273Z,15.55
2023-03-05T13:35:34.550Z,13.20
2023-03-05T13:38:02.667Z,17.67
2023-03-05T13:40:34.380Z,15.52
2023-03-05T13:43:18.375Z,13.43
2023-03-05T13:45:55.185Z,12.77
2023-03-05T13:48:22.532Z,12.88
2023-03-05T13:50:58.057Z,13.80
2023-03-05T13:53:31.074Z,13.43
2023-03-05T13:56:04.083Z,12.88
2023-03-05T13:58:49.101Z,11.02
2023-03-05T14:01:28.668Z,12.35
2023-03-05T14:04:04.017Z,15.85
2023-03-05T14:06:31.433Z,9.00
2023-03-05T14:09:18.758Z,14.60
2023-03-05T14:12:04.053Z,9.13
2023-03-05T14:14:36.872Z,13.57
2023-03-05T14:17:36.636Z,9.68
2023-03-05T14:20:20.094Z,17.35
2023-03-05T14:22:51.082Z,12.20
2023-03-05T14:25:47.419Z,8.43
2023-03-05T14:28:17.521Z,10.75
2023-03-05T14:30:52.319Z,11.48
2023-03-05T14:33:28.824Z,13.30
2023-03-05T14:35:58.217Z,17.27
2023-03-05T14:38:30.305Z,12.48
2023-03-05T14:40:57.864Z,9.75
2023-03-05T14:43:25.150Z,10.70
2023-03-05T14:45:52.516Z,6.55
2023-03-05T14:48:19.753Z,7.00
2023-03-05T14:50:54.122Z,7.65
2023-03-05T14:53:28.351Z,8.55
2023-03-05T14:55:57.395Z,9.95
2023-03-05T14:58:27.738Z,10.30
2023-03-05T15:00:55.798Z,9.32
2023-03-05T15:03:23.659Z,11.32
2023-03-05T15:05:54.503Z,15.55
2023-03-05T15:08:30.732Z,16.75
2023-03-05T15:11:00.932Z,13.35
2023-03-05T15:13:28.236Z,18.35
2023-03-05T15:15:56.220Z,14.32
2023-03-05T15:18:24.087Z,16.85
2023-03-05T15:20:53.291Z,16.15
2023-03-05T15:23:20.870Z,19.33
2023-03-05T15:25:48.246Z,14.98
2023-03-05T15:28:16.237Z,14.02
2023-03-05T15:30:48.075Z,15.48
2023-03-05T15:33:17.206Z,13.10
2023-03-05T15:35:45.214Z,14.43
2023-03-05T15:38:12.476Z,15.50
2023-03-05T15:40:39.741Z,14.75
2023-03-05T15:43:07.044Z,13.98
2023-03-05T15:45:34.356Z,15.18
2023-03-05T15:48:01.804Z,14.50
2023-03-05T15:50:29.224Z,18.25
2023-03-05T15:52:57.136Z,19.33
2023-03-05T15:55:24.709Z,18.42
2023-03-05T15:57:53.150Z,21.02
2023-03-05T16:00:28.348Z,12.23
2023-03-05T16:02:55.765Z,13.80
2023-03-05T16:05:24.355Z,19.95
2023-03-05T16:07:52.506Z,17.73
2023-03-05T16:10:26.193Z,14.57
2023-03-05T16:13:02.759Z,14.75
2023-03-05T16:15:31.836Z,19.52
2023-03-05T16:18:03.079Z,20.85
2023-03-05T16:20:31.402Z,18.90
2023-03-05T16:22:58.751Z,17.25
2023-03-05T16:25:26.919Z,16.40
2023-03-05T16:27:54.127Z,12.23
2023-03-05T16:30:21.632Z,12.93
2023-03-05T16:32:49.002Z,21.38
2023-03-05T16:35:16.495Z,16.50
2023-03-05T16:37:43.989Z,12.65
2023-03-05T16:40:12.533Z,11.23
2023-03-05T16:42:40.115Z,13.20
2023-03-05T16:45:08.391Z,13.13
2023-03-05T16:47:36.401Z,10.07
2023-03-05T16:50:05.064Z,14.00
2023-03-05T16:52:32.227Z,14.27
2023-03-05T16:54:59.596Z,12.30
2023-03-05T16:57:29.114Z,15.40
2023-03-05T16:59:57.302Z,13.30
2023-03-05T17:02:24.928Z,13.63
2023-03-05T17:04:52.078Z,13.70
2023-03-05T17:07:20.346Z,17.60
2023-03-05T17:09:48.577Z,12.65
2023-03-05T17:12:15.895Z,14.93
2023-03-05T17:14:43.052Z,12.70
2023-03-05T17:17:10.500Z,17.00
2023-03-05T17:19:39.442Z,15.32
2023-03-05T17:22:06.833Z,13.43
2023-03-05T17:24:33.881Z,15.13
2023-03-05T17:27:01.270Z,17.75
2023-03-05T17:29:29.060Z,19.42
2023-03-05T17:31:56.192Z,18.83
2023-03-05T17:34:35.477Z,15.20
2023-03-05T17:37:05.021Z,15.05
2023-03-05T17:39:32.309Z,15.63
2023-03-05T17:42:02.197Z,22.25
2023-03-05T17:44:29.352Z,24.35
2023-03-05T17:46:57.045Z,22.13
2023-03-05T17:49:26.956Z,21.15
2023-03-05T17:51:54.022Z,19.30
2023-03-05T17:54:21.514Z,22.33
2023-03-05T17:56:48.563Z,24.40
2023-03-05T17:59:16.518Z,23.48
2023-03-05T18:01:43.664Z,21.20
2023-03-05T18:04:11.316Z,27.23
2023-03-05T18:06:38.501Z,28.95
2023-03-05T18:09:06.870Z,24.48
2023-03-05T18:11:34.075Z,21.15
2023-03-05T18:14:01.135Z,24.00
2023-03-05T18:16:29.435Z,22.35
2023-03-05T18:18:56.750Z,20.13
2023-03-05T18:21:25.333Z,20.50
2023-03-05T18:23:52.803Z,23.17
2023-03-05T18:26:21.865Z,19.90
2023-03-05T18:28:48.891Z,25.77
2023-03-05T18:31:16.129Z,22.17
2023-03-05T18:33:43.450Z,22.10
2023-03-05T18:36:12.031Z,29.95
2023-03-05T18:38:41.440Z,38.30
2023-03-05T18:41:08.706Z,46.30
2023-03-05T18:43:36.987Z,31.00
2023-03-05T18:46:05.151Z,29.65
2023-03-05T18:48:32.383Z,37.38
2023-03-05T18:51:01.899Z,26.65
2023-03-05T18:53:29.518Z,23.42
2023-03-05T18:55:57.439Z,19.58
2023-03-05T18:58:26.216Z,23.35
2023-03-05T19:00:53.386Z,27.80
2023-03-05T19:03:22.541Z,25.23
2023-03-05T19:05:51.390Z,23.70
2023-03-05T19:08:18.728Z,24.83
2023-03-05T19:10:46.085Z,22.67
2023-03-05T19:13:34.801Z,18.52
2023-03-05T19:16:08.221Z,18.95
2023-03-05T19:18:39.768Z,24.33
2023-03-05T19:21:08.384Z,22.25
2023-03-05T19:23:35.525Z,24.40
2023-03-05T19:26:03.338Z,25.27
2023-03-05T19:28:30.522Z,22.35
2023-03-05T19:30:57.655Z,23.38
2023-03-05T19:33:25.120Z,22.35
2023-03-05T19:35:52.426Z,22.48
2023-03-05T19:38:19.534Z,40.80
2023-03-05T19:40:47.914Z,32.63
2023-03-05T19:43:17.714Z,25.63
2023-03-05T19:45:44.864Z,25.60
2023-03-05T19:48:11.924Z,25.52
2023-03-05T19:50:40.620Z,34.42
2023-03-05T19:53:07.775Z,26.00
2023-03-05T19:55:38.795Z,27.65
2023-03-05T19:58:08.608Z,25.42
2023-03-05T20:00:36.658Z,27.02
2023-03-05T20:03:03.806Z,26.50
2023-03-05T20:05:30.829Z,25.58
2023-03-05T20:07:59.306Z,27.38
2023-03-05T20:10:26.664Z,31.30
2023-03-05T20:12:53.733Z,27.80
2023-03-05T20:15:29.317Z,29.08
2023-03-05T20:17:59.888Z,33.20
2023-03-05T20:20:28.070Z,41.85
2023-03-05T20:22:55.163Z,39.92
2023-03-05T20:25:24.915Z,33.25
2023-03-05T20:27:52.735Z,34.25
2023-03-05T20:30:20.561Z,37.85
2023-03-05T20:32:47.716Z,37.22
2023-03-05T20:35:16.933Z,32.72
2023-03-05T20:37:51.657Z,46.58
2023-03-05T20:40:18.921Z,37.47
2023-03-05T20:42:46.032Z,33.47
2023-03-05T20:45:13.338Z,33.03
2023-03-05T20:47:46.468Z,29.88
2023-03-05T20:50:17.419Z,24.73
2023-03-05T20:52:44.911Z,40.25
2023-03-05T20:55:12.727Z,35.45
2023-03-05T20:57:40.074Z,29.95
2023-03-05T21:00:08.045Z,20.23
2023-03-05T21:02:35.385Z,18.08
2023-03-05T21:05:03.945Z,19.88
2023-03-05T21:07:31.228Z,22.38
2023-03-05T21:09:58.446Z,24.02
2023-03-05T21:12:25.654Z,22.17
2023-03-05T21:14:52.830Z,18.42
2023-03-05T21:17:21.692Z,21.17
2023-03-05T21:19:49.041Z,25.33
2023-03-05T21:22:16.348Z,22.17
2023-03-05T21:24:55.929Z,26.95
2023-03-05T21:27:23.028Z,24.20
2023-03-05T21:29:50.676Z,21.25
2023-03-05T21:32:17.901Z,21.50
2023-03-05T21:34:45.624Z,19.58
2023-03-05T21:37:12.887Z,20.73
2023-03-05T21:39:40.300Z,19.08
2023-03-05T21:42:07.615Z,22.83
2023-03-05T21:44:35.040Z,20.08
2023-03-05T21:47:02.188Z,24.70
2023-03-05T21:49:29.456Z,25.05
2023-03-05T21:52:05.515Z,21.17
2023-03-05T21:54:33.175Z,22.80
2023-03-05T21:57:00.636Z,21.55
2023-03-05T21:59:28.074Z,27.52
2023-03-05T22:01:55.619Z,23.52
2023-03-05T22:04:22.996Z,28.85
2023-03-05T22:06:50.350Z,25.25
2023-03-05T22:09:17.624Z,25.55
2023-03-05T22:11:45.878Z,27.90
2023-03-05T22:14:13.841Z,34.05
2023-03-05T22:16:42.096Z,26.48
2023-03-05T22:19:10.668Z,29.27
2023-03-05T22:21:38.036Z,28.83
2023-03-05T22:24:05.360Z,30.27
2023-03-05T22:26:38.936Z,30.75
2023-03-05T22:29:09.858Z,30.10
2023-03-05T22:31:37.237Z,31.60
2023-03-05T22:34:04.673Z,33.28
2023-03-05T22:36:32.111Z,32.00
2023-03-05T22:38:59.375Z,30.83
2023-03-05T22:41:26.609Z,33.10
2023-03-05T22:43:54.158Z,31.45
2023-03-05T22:46:23.240Z,29.75
2023-03-05T22:48:51.510Z,33.58
2023-03-05T22:51:19.831Z,34.60
2023-03-05T22:53:47.357Z,33.47
2023-03-05T22:56:17.818Z,30.02
2023-03-05T22:58:47.086Z,33.10
2023-03-05T23:01:22.744Z,36.67
2023-03-05T23:03:55.247Z,32.90
2023-03-05T23:06:23.760Z,32.75
2023-03-05T23:08:51.108Z,32.03
2023-03-05T23:11:18.453Z,32.30
2023-03-05T23:13:45.775Z,32.08
2023-03-05T23:16:13.065Z,34.22
2023-03-05T23:18:40.434Z,39.63
2023-03-05T23:21:07.561Z,32.00
2023-03-05T23:23:34.800Z,31.10
2023-03-05T23:26:02.057Z,28.30
2023-03-05T23:28:29.393Z,30.23
2023-03-05T23:30:58.230Z,24.65
2023-03-05T23:33:25.590Z,28.95
2023-03-05T23:36:00.720Z,28.05
2023-03-05T23:38:30.049Z,24.65
2023-03-05T23:41:01.209Z,26.75
2023-03-05T23:43:29.702Z,22.83
2023-03-05T23:45:57.411Z,26.15
2023-03-05T23:48:26.038Z,26.65
2023-03-05T23:50:54.038Z,28.48
2023-03-05T23:53:27.564Z,23.30
2023-03-05T23:55:55.347Z,22.90
2023-03-05T23:58:23.268Z,23.33
